West Line, Missouri
Current Conditions -  °F | °C
As of 10:53 PM on Friday 24 Oct 2014 (Local Time) from KOJC Reporting Station
Clear Clear  
Wind Chill: 63°   Ceiling: Unl
Heat Index: 63°   Visibility: 9mi
Dew Point: 61°   Wind: 7mph
Humidity: 93%   Direction: 200°SSW
Pressure: 30"   Gusts: NA
Location:  38.653°N, 94.5715°W
Report Text: KOJC 250353Z AUTO 20006KT 9SM CLR 17/16 A3000 RMK AO2 SLP152 T01720161
Loading
Personal Weather Stations






























Interactive Weather Map
Tropical Storm Tracking
New forecast layout! Learn more

10-Day Weather Forecast

Advertisements
Track Severe Weather on mobile